createdAt,value
2019-01-20T00:02:50.635Z,10.61
2019-01-20T00:07:59.356Z,10.17
2019-01-20T00:13:07.941Z,11.25
2019-01-20T00:18:16.854Z,10.67
2019-01-20T00:23:25.311Z,11.33
2019-01-20T00:28:33.968Z,11.38
2019-01-20T00:33:42.403Z,10.35
2019-01-20T00:38:51.260Z,12.52
2019-01-20T00:43:59.858Z,11.21
2019-01-20T00:49:08.334Z,10.05
2019-01-20T00:54:17.027Z,9.76
2019-01-20T00:59:25.499Z,10.42
2019-01-20T01:04:34.378Z,11.26
2019-01-20T01:09:42.778Z,9.52
2019-01-20T01:14:51.687Z,9.55
2019-01-20T01:20:00.024Z,10.70
2019-01-20T01:25:09.241Z,10.54
2019-01-20T01:30:17.982Z,9.01
2019-01-20T01:35:26.829Z,10.09
2019-01-20T01:40:35.250Z,11.31
2019-01-20T01:45:44.024Z,10.13
2019-01-20T01:50:52.528Z,10.14
2019-01-20T01:56:01.275Z,10.48
2019-01-20T02:01:09.697Z,9.12
2019-01-20T02:06:18.463Z,9.78
2019-01-20T02:11:26.891Z,8.14
2019-01-20T02:16:35.703Z,8.28
2019-01-20T02:21:44.178Z,9.12
2019-01-20T02:26:52.957Z,9.62
2019-01-20T02:32:01.383Z,12.66
2019-01-20T02:37:10.223Z,10.72
2019-01-20T02:42:18.572Z,10.73
2019-01-20T02:47:27.386Z,9.09
2019-01-20T02:52:35.835Z,8.42
2019-01-20T02:57:44.690Z,8.21
2019-01-20T03:02:53.247Z,7.78
2019-01-20T03:08:02.024Z,10.39
2019-01-20T03:13:10.412Z,10.35
2019-01-20T03:18:19.168Z,8.34
2019-01-20T03:23:27.605Z,9.54
2019-01-20T03:28:36.338Z,8.69
2019-01-20T03:33:44.732Z,8.61
2019-01-20T03:38:53.700Z,10.27
2019-01-20T03:44:02.057Z,9.56
2019-01-20T03:49:11.063Z,9.69
2019-01-20T03:54:19.464Z,8.64
2019-01-20T03:59:28.168Z,9.71
2019-01-20T04:04:36.686Z,9.40
2019-01-20T04:09:45.460Z,9.77
2019-01-20T04:14:53.835Z,10.76
2019-01-20T04:20:02.702Z,8.88
2019-01-20T04:25:11.022Z,10.08
2019-01-20T04:30:19.782Z,10.23
2019-01-20T04:35:28.174Z,8.89
2019-01-20T04:40:36.892Z,9.81
2019-01-20T04:45:45.395Z,8.89
2019-01-20T04:50:54.147Z,8.53
2019-01-20T04:56:02.522Z,8.66
2019-01-20T05:01:11.514Z,10.80
2019-01-20T05:06:19.909Z,9.32
2019-01-20T05:11:28.648Z,8.58
2019-01-20T05:16:37.083Z,9.45
2019-01-20T05:21:45.954Z,9.21
2019-01-20T05:26:54.321Z,8.32
2019-01-20T05:32:03.040Z,10.65
2019-01-20T05:37:11.579Z,10.63
2019-01-20T05:42:20.402Z,10.08
2019-01-20T05:47:28.800Z,8.64
2019-01-20T05:52:37.536Z,12.03
2019-01-20T05:57:46.072Z,9.24
2019-01-20T06:02:54.792Z,10.67
2019-01-20T06:08:03.285Z,10.73
2019-01-20T06:13:12.109Z,8.75
2019-01-20T06:18:20.628Z,10.52
2019-01-20T06:23:29.333Z,9.07
2019-01-20T06:28:37.744Z,9.10
2019-01-20T06:33:44.770Z,9.19
2019-01-20T06:38:53.258Z,9.56
2019-01-20T06:44:01.677Z,9.21
2019-01-20T06:49:10.195Z,9.91
2019-01-20T06:54:18.716Z,8.26
2019-01-20T06:59:27.152Z,8.95
2019-01-20T07:04:35.515Z,9.37
2019-01-20T07:09:43.881Z,10.36
2019-01-20T07:14:52.513Z,9.28
2019-01-20T07:20:00.941Z,10.22
2019-01-20T07:25:09.356Z,10.43
2019-01-20T07:30:17.722Z,11.35
2019-01-20T07:35:26.291Z,11.12
2019-01-20T07:40:34.983Z,11.26
2019-01-20T07:45:43.539Z,9.81
2019-01-20T07:50:51.893Z,11.03
2019-01-20T07:56:00.769Z,10.03
2019-01-20T08:01:09.150Z,11.85
2019-01-20T08:06:17.810Z,11.50
2019-01-20T08:11:26.237Z,10.30
2019-01-20T08:16:34.656Z,10.85
2019-01-20T08:21:43.124Z,10.78
2019-01-20T08:26:51.622Z,10.92
2019-01-20T08:31:59.943Z,11.47
2019-01-20T08:37:08.535Z,11.69
2019-01-20T08:42:16.897Z,10.25
2019-01-20T08:47:25.519Z,11.30
2019-01-20T08:52:33.871Z,12.34
2019-01-20T08:57:42.411Z,12.64
2019-01-20T09:02:50.828Z,13.41
2019-01-20T09:07:59.218Z,13.48
2019-01-20T09:13:07.740Z,13.83
2019-01-20T09:18:16.141Z,12.91
2019-01-20T09:23:24.625Z,12.34
2019-01-20T09:28:33.130Z,13.20
2019-01-20T09:33:41.526Z,14.95
2019-01-20T09:38:49.922Z,14.37
2019-01-20T09:43:58.579Z,14.06
2019-01-20T09:49:13.466Z,13.59
2019-01-20T09:54:11.883Z,13.23
2019-01-20T09:59:20.277Z,15.62
2019-01-20T10:04:29.112Z,15.47
2019-01-20T10:09:37.590Z,15.54
2019-01-20T10:14:46.184Z,13.58
2019-01-20T10:19:54.667Z,15.47
2019-01-20T10:25:03.237Z,15.30
2019-01-20T10:30:11.657Z,14.34
2019-01-20T10:35:20.087Z,16.52
2019-01-20T10:40:28.456Z,15.85
2019-01-20T10:45:37.315Z,15.20
2019-01-20T10:50:45.717Z,14.17
2019-01-20T10:55:54.374Z,16.98
2019-01-20T11:01:02.723Z,15.15
2019-01-20T11:06:11.237Z,16.81
2019-01-20T11:11:19.616Z,17.45
2019-01-20T11:16:28.176Z,17.18
2019-01-20T11:21:36.786Z,17.11
2019-01-20T11:26:45.314Z,17.69
2019-01-20T11:31:53.797Z,17.37
2019-01-20T11:37:02.344Z,18.32
2019-01-20T11:42:10.755Z,18.13
2019-01-20T11:47:19.346Z,15.97
2019-01-20T11:52:27.795Z,16.49
2019-01-20T11:57:36.293Z,18.18
2019-01-20T12:02:44.718Z,19.58
2019-01-20T12:07:54.197Z,17.16
2019-01-20T12:13:01.266Z,18.08
2019-01-20T12:18:09.692Z,18.69
2019-01-20T12:23:18.135Z,16.54
2019-01-20T12:28:26.566Z,19.02
2019-01-20T12:33:34.980Z,18.80
2019-01-20T12:38:43.657Z,18.10
2019-01-20T12:43:53.238Z,17.99
2019-01-20T12:49:01.605Z,17.65
2019-01-20T12:54:10.300Z,17.44
2019-01-20T12:59:18.782Z,19.57
2019-01-20T13:04:27.304Z,17.80
2019-01-20T13:09:35.818Z,14.96
2019-01-20T13:14:44.312Z,22.79
2019-01-20T13:19:52.734Z,17.18
2019-01-20T13:25:01.268Z,18.37
2019-01-20T13:30:09.755Z,17.37
2019-01-20T13:35:18.321Z,17.41
2019-01-20T13:40:26.976Z,17.37
2019-01-20T13:45:35.587Z,16.89
2019-01-20T13:50:44.040Z,17.19
2019-01-20T13:55:52.539Z,14.85
2019-01-20T14:00:59.711Z,18.89
2019-01-20T14:06:08.166Z,17.42
2019-01-20T14:11:16.605Z,17.11
2019-01-20T14:16:30.007Z,17.77
2019-01-20T14:21:28.481Z,17.87
2019-01-20T14:26:35.578Z,15.87
2019-01-20T14:31:44.180Z,16.78
2019-01-20T14:38:00.149Z,18.10
2019-01-20T14:43:08.694Z,17.99
2019-01-20T14:48:17.257Z,17.22
2019-01-20T14:53:25.817Z,15.93
2019-01-20T14:58:34.299Z,18.59
2019-01-20T15:03:42.690Z,18.48
2019-01-20T15:08:51.226Z,17.09
2019-01-20T15:13:59.661Z,17.60
2019-01-20T15:19:08.070Z,18.12
2019-01-20T15:24:16.810Z,16.83
2019-01-20T15:29:25.274Z,17.59
2019-01-20T15:34:33.701Z,16.28
2019-01-20T15:39:42.445Z,18.63
2019-01-20T15:44:50.887Z,17.73
2019-01-20T15:49:59.289Z,20.86
2019-01-20T15:55:07.826Z,18.29
2019-01-20T16:00:16.423Z,20.98
2019-01-20T16:05:24.805Z,17.76
2019-01-20T16:10:33.182Z,18.39
2019-01-20T16:15:41.693Z,19.95
2019-01-20T16:20:50.069Z,20.21
2019-01-20T16:25:58.491Z,19.23
2019-01-20T16:31:07.077Z,18.79
2019-01-20T16:36:15.518Z,16.62
2019-01-20T16:41:23.966Z,20.31
2019-01-20T16:46:32.337Z,18.46
2019-01-20T16:51:41.063Z,19.78
2019-01-20T16:56:49.558Z,20.51
2019-01-20T17:02:03.843Z,20.03
2019-01-20T17:07:02.342Z,19.44
2019-01-20T17:12:10.949Z,18.98
2019-01-20T17:17:19.406Z,19.73
2019-01-20T17:22:27.962Z,20.99
2019-01-20T17:27:36.885Z,19.91
2019-01-20T17:32:45.288Z,20.78
2019-01-20T17:37:54.006Z,21.12
2019-01-20T17:43:02.905Z,22.57
2019-01-20T17:48:11.398Z,19.79
2019-01-20T17:53:19.873Z,23.08
2019-01-20T17:58:28.364Z,19.50
2019-01-20T18:03:37.313Z,22.23
2019-01-20T18:08:46.158Z,21.26
2019-01-20T18:13:54.633Z,23.11
2019-01-20T18:19:03.221Z,22.16
2019-01-20T18:24:12.034Z,24.13
2019-01-20T18:29:22.343Z,24.39
2019-01-20T18:34:20.923Z,23.14
2019-01-20T18:39:30.578Z,24.10
2019-01-20T18:44:39.255Z,19.41
2019-01-20T18:49:47.277Z,21.31
2019-01-20T18:54:55.661Z,22.97
2019-01-20T19:00:04.456Z,21.26
2019-01-20T19:05:14.420Z,24.02
2019-01-20T19:10:23.145Z,21.22
2019-01-20T19:15:35.212Z,22.41
2019-01-20T19:20:33.630Z,21.78
2019-01-20T19:25:42.085Z,23.15
2019-01-20T19:30:52.272Z,22.58
2019-01-20T19:35:50.722Z,24.04
2019-01-20T19:40:59.205Z,24.75
2019-01-20T19:46:07.861Z,24.19
2019-01-20T19:51:23.826Z,23.66
2019-01-20T19:56:22.309Z,22.11
2019-01-20T20:01:31.158Z,21.81
2019-01-20T20:06:39.375Z,23.44
2019-01-20T20:11:47.771Z,22.81
2019-01-20T20:16:56.215Z,20.13
2019-01-20T20:22:04.694Z,21.65
2019-01-20T20:27:13.648Z,22.05
2019-01-20T20:32:22.089Z,23.25
2019-01-20T20:38:18.569Z,24.26
2019-01-20T20:43:27.096Z,20.00
2019-01-20T20:48:35.622Z,22.22
2019-01-20T20:53:46.542Z,21.22
2019-01-20T20:58:44.888Z,19.91
2019-01-20T21:03:53.406Z,19.69
2019-01-20T21:09:01.851Z,22.64
2019-01-20T21:14:10.328Z,24.09
2019-01-20T21:19:18.835Z,23.09
2019-01-20T21:24:28.193Z,23.31
2019-01-20T21:29:35.234Z,23.64
2019-01-20T21:34:43.587Z,22.56
2019-01-20T21:39:52.073Z,25.28
2019-01-20T21:45:00.550Z,24.60
2019-01-20T21:50:09.116Z,22.88
2019-01-20T21:55:17.566Z,21.59
2019-01-20T22:00:25.995Z,20.43
2019-01-20T22:05:34.393Z,21.76
2019-01-20T22:10:42.813Z,21.08
2019-01-20T22:15:51.329Z,18.87
2019-01-20T22:20:59.764Z,20.35
2019-01-20T22:26:08.146Z,20.99
2019-01-20T22:31:16.534Z,19.18
2019-01-20T22:36:25.392Z,21.03
2019-01-20T22:41:33.819Z,23.83
2019-01-20T22:46:42.402Z,22.78
2019-01-20T22:51:50.783Z,22.14
2019-01-20T22:56:59.220Z,20.43
2019-01-20T23:02:07.580Z,24.41
2019-01-20T23:07:16.150Z,20.79
2019-01-20T23:12:24.495Z,22.04
2019-01-20T23:17:32.880Z,21.80
2019-01-20T23:22:41.309Z,21.50
2019-01-20T23:27:49.828Z,21.61
2019-01-20T23:32:58.480Z,21.04
2019-01-20T23:38:06.889Z,18.98
2019-01-20T23:43:15.216Z,21.90
2019-01-20T23:48:23.843Z,22.57
2019-01-20T23:53:32.351Z,23.60
2019-01-20T23:58:40.792Z,22.99
